createdAt,value
2018-06-30T00:00:50.648Z,97.40
2018-06-30T00:03:19.204Z,97.10
2018-06-30T00:05:47.715Z,96.70
2018-06-30T00:08:16.336Z,96.90
2018-06-30T00:10:44.876Z,97.00
2018-06-30T00:13:13.379Z,97.50
2018-06-30T00:15:41.970Z,97.40
2018-06-30T00:18:10.514Z,97.80
2018-06-30T00:20:39.398Z,98.00
2018-06-30T00:23:08.364Z,98.10
2018-06-30T00:25:36.908Z,98.10
2018-06-30T00:28:05.618Z,98.40
2018-06-30T00:30:34.094Z,98.30
2018-06-30T00:33:02.653Z,98.20
2018-06-30T00:35:31.335Z,98.00
2018-06-30T00:37:59.975Z,98.00
2018-06-30T00:40:28.698Z,98.10
2018-06-30T00:42:57.182Z,98.30
2018-06-30T00:45:25.866Z,98.40
2018-06-30T00:47:54.365Z,98.70
2018-06-30T00:50:22.926Z,98.90
2018-06-30T00:52:51.529Z,98.80
2018-06-30T00:55:20.313Z,98.50
2018-06-30T00:57:49.082Z,98.20
2018-06-30T01:00:17.717Z,98.10
2018-06-30T01:02:46.463Z,98.20
2018-06-30T01:05:14.944Z,98.20
2018-06-30T01:07:43.440Z,98.20
2018-06-30T01:10:12.008Z,98.70
2018-06-30T01:12:40.648Z,99.10
2018-06-30T01:15:09.107Z,99.30
2018-06-30T01:17:37.862Z,99.50
2018-06-30T01:20:06.760Z,99.70
2018-06-30T01:22:35.250Z,99.60
2018-06-30T01:25:03.799Z,99.60
2018-06-30T01:27:32.332Z,99.50
2018-06-30T01:30:01.194Z,99.40
2018-06-30T01:32:29.946Z,99.10
2018-06-30T01:34:58.576Z,98.70
2018-06-30T01:37:27.228Z,98.40
2018-06-30T01:39:56.229Z,98.40
2018-06-30T01:44:53.111Z,98.50
2018-06-30T01:47:21.854Z,99.10
2018-06-30T01:49:50.671Z,99.40
2018-06-30T01:52:19.227Z,99.90
2018-06-30T01:54:47.960Z,99.90
2018-06-30T01:57:16.954Z,99.90
2018-06-30T01:59:45.495Z,99.90
2018-06-30T02:02:13.959Z,99.90
2018-06-30T02:04:42.661Z,99.90
2018-06-30T02:07:11.177Z,99.90
2018-06-30T02:09:39.764Z,99.60
2018-06-30T02:12:08.532Z,99.50
2018-06-30T02:14:37.207Z,99.50
2018-06-30T02:19:34.071Z,99.90
2018-06-30T02:22:02.783Z,99.90
2018-06-30T02:24:31.285Z,99.90
2018-06-30T02:27:00.013Z,99.90
2018-06-30T02:29:28.674Z,99.90
2018-06-30T02:31:57.234Z,99.90
2018-06-30T02:34:25.812Z,99.90
2018-06-30T02:36:54.589Z,99.90
2018-06-30T02:39:23.281Z,99.90
2018-06-30T02:41:51.778Z,99.90
2018-06-30T02:44:20.612Z,99.90
2018-06-30T02:49:17.223Z,99.90
2018-06-30T02:51:45.749Z,99.90
2018-06-30T02:54:14.312Z,99.90
2018-06-30T02:56:42.870Z,99.90
2018-06-30T02:59:11.471Z,99.90
2018-06-30T03:01:40.167Z,99.90
2018-06-30T03:04:08.636Z,99.90
2018-06-30T03:06:37.269Z,99.90
2018-06-30T03:09:08.356Z,99.90
2018-06-30T03:11:36.856Z,99.90
2018-06-30T03:14:05.800Z,99.90
2018-06-30T03:16:34.306Z,99.90
2018-06-30T03:19:02.807Z,99.90
2018-06-30T03:21:31.487Z,99.90
2018-06-30T03:23:59.955Z,99.90
2018-06-30T03:26:28.441Z,99.90
2018-06-30T03:28:56.955Z,99.90
2018-06-30T03:31:25.661Z,99.90
2018-06-30T03:33:54.338Z,99.90
2018-06-30T03:38:51.462Z,99.90
2018-06-30T03:41:20.430Z,99.90
2018-06-30T03:43:48.991Z,99.90
2018-06-30T03:46:17.495Z,99.90
2018-06-30T03:48:46.212Z,99.90
2018-06-30T03:51:14.804Z,99.90
2018-06-30T03:53:43.270Z,99.90
2018-06-30T03:56:11.787Z,99.90
2018-06-30T03:58:40.547Z,99.90
2018-06-30T04:01:09.178Z,99.90
2018-06-30T04:03:37.706Z,99.90
2018-06-30T04:06:06.841Z,99.90
2018-06-30T04:11:03.699Z,99.90
2018-06-30T04:13:32.195Z,99.90
2018-06-30T04:16:00.881Z,99.90
2018-06-30T04:18:29.498Z,99.90
2018-06-30T04:20:58.071Z,99.90
2018-06-30T04:23:27.063Z,99.90
2018-06-30T04:25:55.592Z,99.90
2018-06-30T04:28:24.128Z,99.90
2018-06-30T04:30:52.842Z,99.90
2018-06-30T04:33:21.373Z,99.90
2018-06-30T04:35:50.147Z,99.90
2018-06-30T04:38:18.806Z,99.90
2018-06-30T04:40:47.313Z,99.90
2018-06-30T04:43:16.063Z,99.90
2018-06-30T04:45:44.573Z,99.90
2018-06-30T04:50:41.564Z,99.90
2018-06-30T04:53:10.163Z,99.90
2018-06-30T04:55:39.175Z,99.90
2018-06-30T04:58:07.852Z,99.90
2018-06-30T05:00:36.572Z,99.90
2018-06-30T05:03:05.394Z,99.80
2018-06-30T05:05:33.908Z,99.60
2018-06-30T05:08:02.408Z,99.70
2018-06-30T05:10:30.938Z,99.60
2018-06-30T05:12:59.439Z,99.50
2018-06-30T05:15:28.152Z,99.30
2018-06-30T05:17:56.752Z,99.20
2018-06-30T05:20:25.266Z,99.00
2018-06-30T05:22:53.900Z,98.80
2018-06-30T05:25:22.551Z,98.70
2018-06-30T05:27:51.533Z,98.30
2018-06-30T05:30:20.194Z,98.00
2018-06-30T05:32:49.056Z,97.90
2018-06-30T05:35:17.731Z,97.80
2018-06-30T05:37:46.223Z,97.50
2018-06-30T05:40:14.739Z,97.10
2018-06-30T05:42:43.250Z,96.90
2018-06-30T05:45:12.102Z,96.70
2018-06-30T05:47:40.820Z,96.30
2018-06-30T05:50:09.590Z,96.10
2018-06-30T05:52:38.098Z,95.90
2018-06-30T05:55:06.707Z,95.70
2018-06-30T05:57:35.526Z,95.50
2018-06-30T06:00:04.386Z,95.20
2018-06-30T06:02:32.909Z,95.10
2018-06-30T06:05:01.468Z,94.60
2018-06-30T06:07:30.278Z,94.30
2018-06-30T06:09:58.858Z,94.00
2018-06-30T06:12:27.552Z,93.50
2018-06-30T06:14:56.164Z,93.20
2018-06-30T06:17:24.933Z,92.90
2018-06-30T06:19:53.552Z,92.80
2018-06-30T06:22:22.463Z,92.50
2018-06-30T06:24:51.082Z,92.30
2018-06-30T06:27:20.047Z,92.20
2018-06-30T06:29:48.833Z,91.80
2018-06-30T06:32:17.680Z,91.70
2018-06-30T06:34:46.353Z,91.80
2018-06-30T06:37:15.142Z,91.60
2018-06-30T06:39:43.749Z,91.40
2018-06-30T06:42:12.712Z,91.30
2018-06-30T06:44:41.324Z,91.10
2018-06-30T06:47:10.083Z,91.20
2018-06-30T06:49:38.647Z,91.10
2018-06-30T06:52:07.178Z,90.90
2018-06-30T06:54:35.690Z,90.80
2018-06-30T06:57:04.672Z,90.70
2018-06-30T06:59:33.296Z,90.80
2018-06-30T07:02:01.841Z,90.70
2018-06-30T07:04:30.616Z,90.40
2018-06-30T07:06:59.215Z,90.50
2018-06-30T07:09:27.921Z,90.30
2018-06-30T07:11:56.545Z,90.50
2018-06-30T07:14:25.368Z,90.40
2018-06-30T07:16:53.888Z,90.60
2018-06-30T07:19:22.976Z,90.30
2018-06-30T07:21:51.677Z,90.00
2018-06-30T07:24:20.216Z,90.20
2018-06-30T07:26:48.792Z,89.80
2018-06-30T07:29:17.339Z,89.30
2018-06-30T07:31:45.924Z,89.10
2018-06-30T07:34:14.542Z,89.10
2018-06-30T07:36:43.055Z,88.50
2018-06-30T07:39:11.573Z,87.20
2018-06-30T07:41:41.446Z,87.40
2018-06-30T07:44:10.269Z,86.60
2018-06-30T07:46:38.945Z,86.80
2018-06-30T07:49:07.733Z,87.40
2018-06-30T07:51:36.368Z,86.70
2018-06-30T07:54:04.889Z,86.00
2018-06-30T07:59:16.385Z,85.50
2018-06-30T08:01:45.354Z,83.90
2018-06-30T08:04:14.161Z,83.30
2018-06-30T08:09:12.515Z,81.80
2018-06-30T08:11:42.052Z,81.70
2018-06-30T08:14:10.870Z,80.50
2018-06-30T08:16:39.400Z,79.90
2018-06-30T08:19:08.526Z,79.70
2018-06-30T08:21:37.004Z,79.10
2018-06-30T08:24:05.660Z,79.40
2018-06-30T08:26:34.240Z,78.50
2018-06-30T08:29:03.020Z,79.00
2018-06-30T08:31:31.550Z,77.30
2018-06-30T08:34:00.092Z,74.20
2018-06-30T08:36:28.935Z,73.30
2018-06-30T08:38:57.580Z,73.30
2018-06-30T08:41:26.111Z,73.90
2018-06-30T08:43:54.896Z,72.20
2018-06-30T08:46:23.450Z,70.30
2018-06-30T08:51:20.536Z,69.30
2018-06-30T08:53:49.504Z,68.10
2018-06-30T08:58:46.690Z,64.80
2018-06-30T09:01:15.657Z,60.80
2018-06-30T09:03:44.202Z,64.00
2018-06-30T09:06:12.748Z,64.80
2018-06-30T09:08:41.423Z,62.80
2018-06-30T09:11:09.979Z,61.10
2018-06-30T09:13:38.592Z,60.60
2018-06-30T09:16:07.204Z,61.20
2018-06-30T09:18:35.872Z,61.10
2018-06-30T09:21:04.668Z,61.10
2018-06-30T09:23:33.245Z,59.70
2018-06-30T09:26:01.902Z,59.70
2018-06-30T09:28:31.027Z,58.70
2018-06-30T09:30:59.639Z,58.40
2018-06-30T09:33:28.428Z,59.10
2018-06-30T09:35:57.373Z,58.60
2018-06-30T09:38:25.902Z,58.30
2018-06-30T09:40:54.570Z,57.40
2018-06-30T09:43:23.195Z,55.00
2018-06-30T09:45:52.004Z,54.60
2018-06-30T09:48:20.718Z,54.90
2018-06-30T09:50:49.403Z,54.80
2018-06-30T09:53:18.044Z,55.10
2018-06-30T09:55:46.632Z,54.10
2018-06-30T09:58:15.375Z,52.30
2018-06-30T10:00:49.280Z,52.60
2018-06-30T10:03:17.992Z,53.70
2018-06-30T10:05:46.632Z,53.40
2018-06-30T10:08:15.523Z,53.10
2018-06-30T10:10:44.167Z,50.30
2018-06-30T10:13:12.835Z,48.70
2018-06-30T10:15:41.383Z,47.80
2018-06-30T10:18:10.322Z,47.80
2018-06-30T10:20:38.849Z,48.10
2018-06-30T10:23:07.744Z,48.60
2018-06-30T10:25:36.661Z,47.40
2018-06-30T10:28:05.707Z,46.60
2018-06-30T10:30:34.263Z,45.60
2018-06-30T10:33:02.877Z,44.10
2018-06-30T10:35:31.642Z,43.60
2018-06-30T10:38:00.206Z,42.70
2018-06-30T10:40:29.108Z,41.20
2018-06-30T10:42:57.835Z,42.20
2018-06-30T10:45:26.833Z,40.20
2018-06-30T10:47:55.382Z,40.00
2018-06-30T10:50:24.053Z,39.60
2018-06-30T10:52:52.639Z,40.30
2018-06-30T10:55:21.179Z,38.80
2018-06-30T10:57:49.899Z,38.10
2018-06-30T11:00:18.571Z,38.20
2018-06-30T11:02:47.058Z,36.30
2018-06-30T11:05:15.791Z,34.50
2018-06-30T11:07:44.387Z,35.20
2018-06-30T11:10:13.224Z,34.60
2018-06-30T11:12:41.853Z,33.00
2018-06-30T11:15:10.323Z,31.80
2018-06-30T11:17:39.153Z,32.70
2018-06-30T11:20:07.906Z,31.90
2018-06-30T11:22:36.619Z,31.90
2018-06-30T11:25:05.573Z,31.10
2018-06-30T11:27:34.138Z,30.60
2018-06-30T11:30:03.174Z,30.80
2018-06-30T11:32:31.723Z,30.40
2018-06-30T11:35:00.606Z,28.90
2018-06-30T11:37:29.295Z,28.10
2018-06-30T11:42:26.392Z,27.00
2018-06-30T11:44:54.984Z,26.50
2018-06-30T11:47:23.806Z,26.80
2018-06-30T11:49:53.071Z,26.50
2018-06-30T11:52:21.827Z,25.90
2018-06-30T11:54:50.751Z,24.70
2018-06-30T11:57:19.296Z,24.20
2018-06-30T11:59:48.099Z,23.70
2018-06-30T12:04:45.112Z,23.10
2018-06-30T12:07:13.868Z,22.90
2018-06-30T12:09:42.750Z,23.40
2018-06-30T12:12:11.825Z,23.20
2018-06-30T12:14:40.299Z,23.30
2018-06-30T12:17:09.180Z,22.70
2018-06-30T12:19:37.700Z,23.20
2018-06-30T12:22:06.255Z,22.80
2018-06-30T12:24:35.560Z,22.50
2018-06-30T12:29:32.430Z,20.90
2018-06-30T12:32:01.152Z,20.90
2018-06-30T12:34:29.825Z,21.40
2018-06-30T12:36:58.552Z,21.80
2018-06-30T12:39:27.375Z,20.90
2018-06-30T12:41:56.077Z,21.20
2018-06-30T12:44:24.885Z,21.30
2018-06-30T12:46:53.673Z,20.70
2018-06-30T12:49:22.239Z,20.40
2018-06-30T12:51:51.004Z,19.70
2018-06-30T12:54:20.769Z,19.60
2018-06-30T12:56:49.654Z,19.40
2018-06-30T12:59:18.194Z,19.10
2018-06-30T13:01:47.063Z,18.90
2018-06-30T13:04:15.609Z,19.20
2018-06-30T13:06:44.271Z,19.60
2018-06-30T13:09:13.564Z,19.20
2018-06-30T13:11:42.611Z,18.60
2018-06-30T13:14:11.288Z,19.30
2018-06-30T13:16:39.918Z,18.70
2018-06-30T13:19:09.594Z,18.60
2018-06-30T13:21:38.249Z,18.80
2018-06-30T13:24:07.096Z,19.40
2018-06-30T13:26:35.631Z,19.00
2018-06-30T13:29:04.448Z,18.50
2018-06-30T13:31:33.227Z,18.50
2018-06-30T13:34:01.799Z,19.50
2018-06-30T13:36:30.304Z,20.20
2018-06-30T13:38:58.930Z,19.40
2018-06-30T13:41:27.473Z,19.00
2018-06-30T13:43:56.380Z,18.30
2018-06-30T13:46:25.009Z,19.50
2018-06-30T13:48:53.706Z,19.90
2018-06-30T13:51:22.438Z,20.00
2018-06-30T13:53:51.452Z,19.20
2018-06-30T13:56:19.993Z,18.50
2018-06-30T13:58:48.661Z,19.70
2018-06-30T14:01:17.369Z,19.20
2018-06-30T14:03:48.711Z,18.80
2018-06-30T14:06:17.500Z,19.10
2018-06-30T14:08:46.318Z,18.60
2018-06-30T14:11:15.206Z,19.20
2018-06-30T14:13:43.823Z,18.80
2018-06-30T14:16:12.596Z,18.40
2018-06-30T14:18:41.408Z,18.00
2018-06-30T14:21:10.415Z,18.50
2018-06-30T14:23:38.896Z,18.10
2018-06-30T14:26:07.448Z,17.90
2018-06-30T14:28:36.264Z,18.00
2018-06-30T14:31:05.184Z,17.80
2018-06-30T14:33:34.075Z,18.00
2018-06-30T14:36:02.751Z,17.70
2018-06-30T14:38:31.452Z,18.00
2018-06-30T14:43:28.403Z,17.70
2018-06-30T14:45:56.949Z,17.10
2018-06-30T14:48:25.550Z,17.40
2018-06-30T14:50:54.245Z,17.10
2018-06-30T14:53:23.029Z,17.50
2018-06-30T14:55:51.566Z,17.30
2018-06-30T14:58:20.172Z,17.50
2018-06-30T15:00:48.796Z,17.20
2018-06-30T15:03:17.317Z,16.80
2018-06-30T15:05:46.014Z,17.20
2018-06-30T15:08:15.066Z,16.90
2018-06-30T15:10:43.826Z,16.90
2018-06-30T15:13:12.463Z,17.10
2018-06-30T15:15:41.763Z,16.50
2018-06-30T15:18:10.414Z,16.80
2018-06-30T15:23:07.355Z,17.30
2018-06-30T15:25:36.085Z,17.30
2018-06-30T15:28:04.615Z,17.10
2018-06-30T15:30:33.158Z,17.40
2018-06-30T15:33:01.680Z,17.30
2018-06-30T15:35:30.515Z,16.90
2018-06-30T15:37:59.144Z,17.10
2018-06-30T15:40:27.668Z,17.30
2018-06-30T15:42:56.455Z,17.60
2018-06-30T15:45:25.077Z,17.40
2018-06-30T15:47:53.592Z,17.40
2018-06-30T15:50:22.129Z,17.30
2018-06-30T15:52:50.676Z,17.20
2018-06-30T15:55:19.257Z,17.00
2018-06-30T15:57:48.203Z,17.00
2018-06-30T16:00:17.052Z,17.90
2018-06-30T16:05:14.287Z,17.70
2018-06-30T16:07:42.819Z,17.10
2018-06-30T16:10:11.590Z,17.30
2018-06-30T16:12:40.415Z,17.20
2018-06-30T16:15:09.156Z,17.80
2018-06-30T16:17:37.863Z,19.30
2018-06-30T16:22:34.956Z,19.70
2018-06-30T16:25:03.925Z,20.40
2018-06-30T16:27:32.791Z,21.40
2018-06-30T16:32:29.604Z,21.90
2018-06-30T16:34:58.129Z,22.30
2018-06-30T16:37:26.666Z,21.80
2018-06-30T16:39:55.286Z,22.70
2018-06-30T16:42:23.945Z,22.30
2018-06-30T16:44:52.717Z,22.60
2018-06-30T16:47:21.226Z,22.70
2018-06-30T16:49:49.989Z,22.40
2018-06-30T16:52:18.646Z,21.90
2018-06-30T16:57:16.015Z,21.40
2018-06-30T16:59:44.925Z,22.00
2018-06-30T17:02:13.704Z,22.10
2018-06-30T17:04:42.295Z,22.90
2018-06-30T17:07:11.017Z,22.70
2018-06-30T17:09:39.827Z,22.90
2018-06-30T17:12:08.623Z,23.00
2018-06-30T17:14:37.132Z,23.70
2018-06-30T17:17:06.050Z,24.60
2018-06-30T17:19:34.595Z,24.90
2018-06-30T17:22:03.307Z,24.00
2018-06-30T17:24:32.019Z,24.10
2018-06-30T17:27:00.833Z,24.60
2018-06-30T17:29:29.767Z,24.40
2018-06-30T17:31:58.730Z,23.90
2018-06-30T17:34:27.254Z,24.10
2018-06-30T17:36:55.937Z,24.60
2018-06-30T17:39:24.446Z,25.10
2018-06-30T17:41:53.191Z,25.80
2018-06-30T17:44:21.922Z,25.00
2018-06-30T17:46:50.671Z,25.40
2018-06-30T17:49:19.200Z,25.30
2018-06-30T17:51:48.147Z,25.50
2018-06-30T17:54:16.680Z,25.40
2018-06-30T17:56:45.255Z,25.80
2018-06-30T17:59:13.889Z,25.70
2018-06-30T18:01:42.764Z,25.60
2018-06-30T18:04:11.298Z,26.00
2018-06-30T18:06:40.105Z,26.00
2018-06-30T18:09:10.560Z,26.20
2018-06-30T18:11:39.422Z,26.50
2018-06-30T18:14:08.628Z,26.60
2018-06-30T18:16:37.204Z,26.60
2018-06-30T18:19:06.154Z,26.10
2018-06-30T18:21:35.216Z,26.60
2018-06-30T18:24:03.992Z,27.10
2018-06-30T18:26:32.802Z,26.70
2018-06-30T18:29:01.519Z,26.70
2018-06-30T18:31:30.303Z,26.70
2018-06-30T18:33:58.842Z,26.90
2018-06-30T18:36:27.408Z,27.20
2018-06-30T18:38:55.992Z,27.10
2018-06-30T18:41:24.795Z,27.20
2018-06-30T18:43:53.827Z,27.60
2018-06-30T18:46:22.564Z,27.50
2018-06-30T18:48:51.118Z,27.60
2018-06-30T18:51:19.829Z,27.70
2018-06-30T18:53:48.603Z,28.50
2018-06-30T18:56:17.567Z,28.50
2018-06-30T18:58:46.203Z,28.90
2018-06-30T19:01:14.956Z,29.20
2018-06-30T19:03:43.841Z,29.50
2018-06-30T19:06:12.594Z,29.50
2018-06-30T19:08:41.292Z,29.50
2018-06-30T19:11:10.286Z,29.60
2018-06-30T19:13:38.840Z,30.00
2018-06-30T19:16:07.467Z,30.50
2018-06-30T19:18:36.277Z,30.60
2018-06-30T19:21:05.029Z,31.00
2018-06-30T19:23:33.590Z,31.20
2018-06-30T19:26:02.294Z,31.40
2018-06-30T19:28:32.012Z,31.80
2018-06-30T19:31:00.590Z,32.10
2018-06-30T19:33:29.140Z,32.90
2018-06-30T19:38:25.911Z,34.10
2018-06-30T19:40:54.841Z,34.80
2018-06-30T19:43:23.418Z,35.20
2018-06-30T19:45:51.963Z,36.00
2018-06-30T19:48:20.530Z,37.10
2018-06-30T19:50:49.271Z,37.80
2018-06-30T19:53:17.875Z,38.30
2018-06-30T19:55:46.613Z,39.40
2018-06-30T19:58:15.408Z,39.90
2018-06-30T20:00:44.139Z,40.00
2018-06-30T20:03:13.095Z,41.20
2018-06-30T20:05:42.033Z,41.50
2018-06-30T20:08:10.838Z,43.70
2018-06-30T20:10:39.912Z,44.80
2018-06-30T20:13:08.670Z,45.90
2018-06-30T20:15:37.419Z,47.20
2018-06-30T20:18:05.833Z,47.70
2018-06-30T20:20:34.416Z,49.60
2018-06-30T20:23:03.714Z,51.00
2018-06-30T20:25:32.345Z,50.80
2018-06-30T20:28:00.896Z,51.90
2018-06-30T20:30:29.446Z,52.90
2018-06-30T20:32:58.227Z,54.40
2018-06-30T20:35:27.030Z,55.00
2018-06-30T20:37:55.805Z,56.40
2018-06-30T20:40:24.497Z,57.30
2018-06-30T20:42:53.453Z,57.80
2018-06-30T20:45:22.473Z,57.80
2018-06-30T20:47:50.908Z,58.10
2018-06-30T20:50:19.656Z,57.20
2018-06-30T20:52:48.453Z,59.20
2018-06-30T20:55:17.319Z,59.20
2018-06-30T20:57:46.028Z,59.30
2018-06-30T21:00:14.620Z,61.50
2018-06-30T21:02:43.362Z,62.50
2018-06-30T21:05:12.011Z,62.30
2018-06-30T21:07:40.865Z,63.00
2018-06-30T21:10:09.713Z,64.30
2018-06-30T21:12:38.373Z,65.10
2018-06-30T21:15:07.312Z,64.80
2018-06-30T21:20:05.418Z,65.30
2018-06-30T21:22:34.375Z,65.50
2018-06-30T21:25:04.233Z,64.80
2018-06-30T21:27:32.900Z,65.90
2018-06-30T21:30:01.976Z,65.90
2018-06-30T21:32:30.524Z,66.00
2018-06-30T21:34:59.338Z,67.10
2018-06-30T21:37:27.943Z,67.60
2018-06-30T21:39:56.625Z,66.40
2018-06-30T21:42:25.494Z,67.50
2018-06-30T21:44:54.733Z,67.60
2018-06-30T21:47:23.694Z,67.00
2018-06-30T21:49:52.354Z,67.60
2018-06-30T21:52:21.231Z,70.20
2018-06-30T21:54:49.760Z,69.50
2018-06-30T21:57:18.765Z,70.30
2018-06-30T21:59:47.347Z,71.30
2018-06-30T22:02:15.907Z,71.00
2018-06-30T22:04:44.579Z,70.80
2018-06-30T22:07:13.170Z,69.80
2018-06-30T22:09:42.129Z,69.50
2018-06-30T22:12:10.956Z,69.60
2018-06-30T22:14:39.679Z,70.20
2018-06-30T22:17:08.174Z,70.20
2018-06-30T22:19:36.949Z,68.20
2018-06-30T22:22:05.812Z,68.60
2018-06-30T22:24:34.484Z,68.00
2018-06-30T22:27:03.263Z,67.30
2018-06-30T22:29:32.305Z,65.80
2018-06-30T22:32:01.090Z,68.80
2018-06-30T22:34:29.589Z,69.20
2018-06-30T22:36:58.110Z,67.10
2018-06-30T22:40:35.515Z,66.60
2018-06-30T22:43:04.199Z,63.60
2018-06-30T22:45:32.971Z,63.50
2018-06-30T22:48:01.568Z,62.20
2018-06-30T22:52:58.446Z,62.40
2018-06-30T22:55:27.049Z,61.20
2018-06-30T22:57:55.805Z,61.80
2018-06-30T23:00:24.924Z,65.20
2018-06-30T23:02:53.457Z,65.90
2018-06-30T23:05:22.098Z,62.50
2018-06-30T23:07:50.604Z,63.80
2018-06-30T23:10:19.194Z,65.50
2018-06-30T23:12:48.025Z,65.40
2018-06-30T23:17:45.116Z,62.00
2018-06-30T23:20:13.795Z,61.30
2018-06-30T23:22:55.895Z,60.90
2018-06-30T23:25:26.013Z,62.10
2018-06-30T23:27:55.293Z,60.80
2018-06-30T23:30:24.519Z,60.60
2018-06-30T23:32:53.305Z,61.40
2018-06-30T23:35:23.608Z,61.30
2018-06-30T23:37:52.829Z,59.80
2018-06-30T23:40:21.592Z,59.80
2018-06-30T23:42:50.424Z,60.40
2018-06-30T23:45:19.555Z,59.50
2018-06-30T23:47:48.798Z,59.40
2018-06-30T23:50:17.383Z,59.80
2018-06-30T23:52:46.133Z,60.30
2018-06-30T23:55:14.752Z,60.70
2018-06-30T23:57:43.569Z,59.90
